RYR90TC LOWW-EDDK
Flight info
| Callsign | RYR90TC |
|---|---|
| Flight time | N/A |
| Altitude | 32000 |
| Route | BUWUT2A/11 LOWW/11 BUWUT DCT DITIS DCT RAPET T843 DEMAB T842 EBANA T841 ERNEP ERNEP2V |
| Aircraft | B738/M-SDE2E3FGHIRWXY/LB1 |
Departure
| Time | N/A |
|---|---|
| Airport | Vienna International Airport (LOWW) |
Arrival
| Time | 2026-05-06 20:43 |
|---|---|
| Airport | Cologne Bonn Airport (EDDK) |
| Time | Latitude | Longitude | Altitude | Speed | Heading |
|---|---|---|---|---|---|
| 2026-05-06 20:13 | 50.79448 | 9.79657 | 31816 ft | 474 kts | 335° |
| 2026-05-06 20:14 | 50.85525 | 9.75800 | 31816 ft | 473 kts | 335° |
| 2026-05-06 20:14 | 50.91591 | 9.71818 | 31807 ft | 469 kts | 327° |
| 2026-05-06 20:15 | 50.94119 | 9.68689 | 31838 ft | 458 kts | 308° |
| 2026-05-06 20:15 | 50.95970 | 9.64649 | 31824 ft | 450 kts | 295° |
| 2026-05-06 20:15 | 50.97141 | 9.60111 | 31822 ft | 441 kts | 280° |
| 2026-05-06 20:15 | 50.97735 | 9.55356 | 31832 ft | 437 kts | 276° |
| 2026-05-06 20:16 | 50.98802 | 9.45872 | 31828 ft | 429 kts | 277° |
| 2026-05-06 20:16 | 50.99357 | 9.41257 | 31568 ft | 423 kts | 277° |
| 2026-05-06 20:16 | 50.99912 | 9.36705 | 31190 ft | 416 kts | 278° |
| 2026-05-06 20:17 | 51.00460 | 9.32219 | 30747 ft | 413 kts | 278° |
| 2026-05-06 20:17 | 51.01002 | 9.27753 | 30270 ft | 411 kts | 278° |
| 2026-05-06 20:17 | 51.01541 | 9.23293 | 29790 ft | 409 kts | 278° |
| 2026-05-06 20:17 | 51.02072 | 9.18871 | 29288 ft | 406 kts | 278° |
| 2026-05-06 20:18 | 51.02596 | 9.14489 | 28811 ft | 402 kts | 278° |
| 2026-05-06 20:18 | 51.03109 | 9.10193 | 28339 ft | 399 kts | 278° |
| 2026-05-06 20:18 | 51.03622 | 9.05881 | 27857 ft | 396 kts | 278° |
| 2026-05-06 20:18 | 51.04130 | 9.01597 | 27376 ft | 393 kts | 278° |
| 2026-05-06 20:19 | 51.04530 | 8.97345 | 26912 ft | 388 kts | 271° |
| 2026-05-06 20:19 | 51.04506 | 8.93090 | 26459 ft | 383 kts | 262° |
| 2026-05-06 20:19 | 51.04109 | 8.88933 | 26016 ft | 379 kts | 257° |
| 2026-05-06 20:19 | 51.03605 | 8.84867 | 25508 ft | 371 kts | 257° |
| 2026-05-06 20:20 | 51.03096 | 8.80864 | 24797 ft | 369 kts | 257° |
| 2026-05-06 20:20 | 51.02607 | 8.76862 | 24085 ft | 368 kts | 258° |
| 2026-05-06 20:20 | 51.02136 | 8.72868 | 23447 ft | 365 kts | 258° |
| 2026-05-06 20:20 | 51.01677 | 8.68932 | 22760 ft | 361 kts | 258° |
| 2026-05-06 20:21 | 51.01237 | 8.65020 | 21894 ft | 360 kts | 259° |
| 2026-05-06 20:21 | 51.00797 | 8.61045 | 20564 ft | 372 kts | 259° |
| 2026-05-06 20:21 | 51.00347 | 8.56955 | 19419 ft | 379 kts | 259° |
| 2026-05-06 20:21 | 50.99892 | 8.52836 | 18524 ft | 377 kts | 259° |
| 2026-05-06 20:22 | 50.99433 | 8.48717 | 17376 ft | 380 kts | 259° |
| 2026-05-06 20:22 | 50.98978 | 8.44642 | 16374 ft | 378 kts | 259° |
| 2026-05-06 20:22 | 50.98521 | 8.40562 | 15522 ft | 372 kts | 259° |
| 2026-05-06 20:22 | 50.98069 | 8.36545 | 14706 ft | 367 kts | 259° |
| 2026-05-06 20:23 | 50.97620 | 8.32575 | 13891 ft | 364 kts | 259° |
| 2026-05-06 20:23 | 50.97169 | 8.28651 | 13031 ft | 359 kts | 258° |
| 2026-05-06 20:23 | 50.96434 | 8.24891 | 12153 ft | 355 kts | 247° |
| 2026-05-06 20:23 | 50.95455 | 8.21319 | 11340 ft | 351 kts | 245° |
| 2026-05-06 20:24 | 50.94457 | 8.17808 | 10543 ft | 348 kts | 245° |
| 2026-05-06 20:24 | 50.93473 | 8.14335 | 10046 ft | 336 kts | 245° |
| 2026-05-06 20:24 | 50.92563 | 8.11081 | 10037 ft | 312 kts | 245° |
| 2026-05-06 20:24 | 50.91719 | 8.08035 | 9925 ft | 293 kts | 245° |
| 2026-05-06 20:25 | 50.90925 | 8.05147 | 9839 ft | 276 kts | 245° |
| 2026-05-06 20:25 | 50.90175 | 8.02417 | 9559 ft | 268 kts | 245° |
| 2026-05-06 20:25 | 50.89443 | 7.99756 | 9310 ft | 260 kts | 248° |
| 2026-05-06 20:25 | 50.88729 | 7.97147 | 9057 ft | 259 kts | 248° |
| 2026-05-06 20:26 | 50.88005 | 7.94491 | 8803 ft | 265 kts | 249° |
| 2026-05-06 20:26 | 50.87264 | 7.91782 | 8535 ft | 271 kts | 249° |
| 2026-05-06 20:26 | 50.86521 | 7.89061 | 8274 ft | 273 kts | 248° |
| 2026-05-06 20:26 | 50.85768 | 7.86313 | 8009 ft | 272 kts | 248° |
| 2026-05-06 20:27 | 50.85019 | 7.83579 | 7761 ft | 271 kts | 248° |
| 2026-05-06 20:27 | 50.84265 | 7.80850 | 7498 ft | 270 kts | 248° |
| 2026-05-06 20:27 | 50.83518 | 7.78126 | 7252 ft | 269 kts | 248° |
| 2026-05-06 20:27 | 50.82771 | 7.75412 | 6990 ft | 268 kts | 248° |
| 2026-05-06 20:28 | 50.82025 | 7.72708 | 6729 ft | 268 kts | 248° |
| 2026-05-06 20:28 | 50.81283 | 7.70013 | 6472 ft | 268 kts | 248° |
| 2026-05-06 20:28 | 50.80538 | 7.67314 | 6203 ft | 268 kts | 248° |
| 2026-05-06 20:28 | 50.79791 | 7.64615 | 5922 ft | 268 kts | 248° |
| 2026-05-06 20:29 | 50.79049 | 7.61923 | 5640 ft | 267 kts | 250° |
| 2026-05-06 20:29 | 50.78560 | 7.59103 | 5333 ft | 266 kts | 261° |
| 2026-05-06 20:29 | 50.78247 | 7.56222 | 5044 ft | 266 kts | 262° |
| 2026-05-06 20:29 | 50.77946 | 7.53353 | 4788 ft | 262 kts | 262° |
| 2026-05-06 20:30 | 50.77638 | 7.50536 | 4528 ft | 257 kts | 262° |
| 2026-05-06 20:30 | 50.77004 | 7.45098 | 4019 ft | 247 kts | 262° |
| 2026-05-06 20:30 | 50.76683 | 7.42441 | 3778 ft | 242 kts | 262° |
| 2026-05-06 20:31 | 50.76372 | 7.39894 | 3582 ft | 230 kts | 262° |
| 2026-05-06 20:31 | 50.76072 | 7.37462 | 3341 ft | 220 kts | 262° |
| 2026-05-06 20:31 | 50.75787 | 7.35177 | 3122 ft | 210 kts | 262° |
| 2026-05-06 20:31 | 50.75523 | 7.32982 | 3000 ft | 195 kts | 266° |
| 2026-05-06 20:32 | 50.75739 | 7.31025 | 2992 ft | 177 kts | 304° |
| 2026-05-06 20:32 | 50.76481 | 7.29563 | 2992 ft | 167 kts | 318° |
| 2026-05-06 20:32 | 50.77313 | 7.28354 | 3023 ft | 157 kts | 320° |
| 2026-05-06 20:32 | 50.78106 | 7.27228 | 2991 ft | 151 kts | 320° |
| 2026-05-06 20:33 | 50.78899 | 7.26160 | 2989 ft | 150 kts | 321° |
| 2026-05-06 20:33 | 50.79626 | 7.25001 | 2976 ft | 155 kts | 300° |
| 2026-05-06 20:33 | 50.79749 | 7.23118 | 3006 ft | 193 kts | 258° |
| 2026-05-06 20:33 | 50.79068 | 7.21292 | 3012 ft | 195 kts | 231° |
| 2026-05-06 20:34 | 50.78152 | 7.19729 | 2984 ft | 193 kts | 229° |
| 2026-05-06 20:34 | 50.77233 | 7.18193 | 2992 ft | 192 kts | 229° |
| 2026-05-06 20:34 | 50.76313 | 7.16665 | 2994 ft | 193 kts | 229° |
| 2026-05-06 20:34 | 50.75343 | 7.15192 | 2977 ft | 195 kts | 214° |
| 2026-05-06 20:35 | 50.74044 | 7.14671 | 2996 ft | 197 kts | 174° |
| 2026-05-06 20:35 | 50.72804 | 7.15505 | 2999 ft | 192 kts | 141° |
| 2026-05-06 20:35 | 50.71788 | 7.16822 | 2981 ft | 186 kts | 137° |
| 2026-05-06 20:35 | 50.70814 | 7.18141 | 2979 ft | 185 kts | 137° |
| 2026-05-06 20:36 | 50.69834 | 7.19474 | 2987 ft | 187 kts | 137° |
| 2026-05-06 20:36 | 50.68838 | 7.20826 | 2998 ft | 190 kts | 137° |
| 2026-05-06 20:36 | 50.67838 | 7.22182 | 2976 ft | 188 kts | 137° |
| 2026-05-06 20:36 | 50.66930 | 7.23629 | 2945 ft | 183 kts | 113° |
| 2026-05-06 20:37 | 50.66882 | 7.25502 | 2978 ft | 175 kts | 60° |
| 2026-05-06 20:37 | 50.67780 | 7.26649 | 3000 ft | 170 kts | 9° |
| 2026-05-06 20:37 | 50.68958 | 7.26945 | 2976 ft | 175 kts | 19° |
| 2026-05-06 20:37 | 50.70041 | 7.27685 | 2979 ft | 170 kts | 21° |
| 2026-05-06 20:38 | 50.71109 | 7.28417 | 2983 ft | 163 kts | 21° |
| 2026-05-06 20:38 | 50.72133 | 7.29115 | 2973 ft | 160 kts | 21° |
| 2026-05-06 20:38 | 50.73151 | 7.29813 | 2989 ft | 159 kts | 21° |
| 2026-05-06 20:38 | 50.74164 | 7.30507 | 2967 ft | 157 kts | 21° |
| 2026-05-06 20:39 | 50.74844 | 7.30877 | 2977 ft | 156 kts | 6° |
| 2026-05-06 20:39 | 50.75819 | 7.30368 | 3007 ft | 156 kts | 322° |
| 2026-05-06 20:39 | 50.76705 | 7.29264 | 2796 ft | 160 kts | 323° |
| 2026-05-06 20:39 | 50.77535 | 7.28164 | 2583 ft | 152 kts | 320° |
| 2026-05-06 20:40 | 50.78312 | 7.27061 | 2378 ft | 150 kts | 320° |
| 2026-05-06 20:40 | 50.79078 | 7.25951 | 2170 ft | 148 kts | 319° |
| 2026-05-06 20:40 | 50.79823 | 7.24864 | 1970 ft | 144 kts | 319° |
| 2026-05-06 20:40 | 50.80547 | 7.23794 | 1738 ft | 142 kts | 319° |
| 2026-05-06 20:41 | 50.81286 | 7.22715 | 1521 ft | 146 kts | 318° |
| 2026-05-06 20:41 | 50.82023 | 7.21620 | 1341 ft | 144 kts | 317° |
| 2026-05-06 20:41 | 50.82758 | 7.20530 | 1174 ft | 145 kts | 318° |
| 2026-05-06 20:41 | 50.83514 | 7.19462 | 986 ft | 146 kts | 317° |
| 2026-05-06 20:42 | 50.84265 | 7.18355 | 745 ft | 148 kts | 316° |
| 2026-05-06 20:42 | 50.85018 | 7.17274 | 520 ft | 147 kts | 317° |
| 2026-05-06 20:42 | 50.85777 | 7.16186 | 316 ft | 145 kts | 317° |
| 2026-05-06 20:42 | 50.86461 | 7.15205 | 280 ft | 116 kts | 317° |
| 2026-05-06 20:43 | 50.86967 | 7.14474 | 256 ft | 81 kts | 317° |
| 2026-05-06 20:43 | 50.87306 | 7.13983 | 241 ft | 58 kts | 317° |
| 2026-05-06 20:43 | 50.87588 | 7.13575 | 238 ft | 51 kts | 317° |
| 2026-05-06 20:43 | 50.87792 | 7.13279 | 238 ft | 32 kts | 317° |
| 2026-05-06 20:44 | 50.87844 | 7.13112 | 238 ft | 15 kts | 256° |
| 2026-05-06 20:44 | 50.87822 | 7.12971 | 239 ft | 9 kts | 256° |
| 2026-05-06 20:44 | 50.87812 | 7.12909 | 236 ft | 1 kts | 256° |
| 2026-05-06 20:44 | 50.87808 | 7.12881 | 233 ft | 4 kts | 256° |
| 2026-05-06 20:45 | 50.87799 | 7.12822 | 232 ft | 7 kts | 257° |
| 2026-05-06 20:45 | 50.87788 | 7.12753 | 233 ft | 6 kts | 255° |
| 2026-05-06 20:45 | 50.87786 | 7.12684 | 231 ft | 6 kts | 283° |
| 2026-05-06 20:45 | 50.87815 | 7.12632 | 231 ft | 6 kts | 328° |
| 2026-05-06 20:46 | 50.87853 | 7.12612 | 233 ft | 6 kts | 350° |
| 2026-05-06 20:46 | 50.87866 | 7.12611 | 231 ft | 0 kts | 358° |
| 2026-05-06 20:46 | 50.87869 | 7.12610 | 231 ft | 1 kts | 358° |
| 2026-05-06 20:46 | 50.87880 | 7.12602 | 231 ft | 2 kts | 327° |
| 2026-05-06 20:47 | 50.87890 | 7.12581 | 232 ft | 2 kts | 296° |
| 2026-05-06 20:47 | 50.87895 | 7.12557 | 231 ft | 2 kts | 289° |
| 2026-05-06 20:47 | 50.87900 | 7.12533 | 231 ft | 2 kts | 288° |
| 2026-05-06 20:47 | 50.87905 | 7.12511 | 231 ft | 2 kts | 288° |
| 2026-05-06 20:48 | 50.87908 | 7.12493 | 231 ft | 1 kts | 288° |
| 2026-05-06 20:48 | 50.87908 | 7.12492 | 231 ft | 0 kts | 288° |